createdAt,value
2022-10-31T00:01:02.195Z,15.90
2022-10-31T00:03:28.801Z,15.84
2022-10-31T00:05:55.281Z,15.79
2022-10-31T00:08:21.735Z,15.75
2022-10-31T00:10:48.216Z,15.72
2022-10-31T00:13:15.290Z,15.72
2022-10-31T00:15:42.525Z,15.63
2022-10-31T00:18:10.841Z,15.62
2022-10-31T00:20:38.105Z,15.57
2022-10-31T00:23:06.318Z,15.53
2022-10-31T00:25:38.199Z,15.49
2022-10-31T00:28:07.179Z,15.44
2022-10-31T00:30:34.880Z,15.38
2022-10-31T00:33:01.868Z,15.35
2022-10-31T00:35:28.584Z,15.36
2022-10-31T00:37:55.077Z,15.36
2022-10-31T00:40:21.522Z,15.36
2022-10-31T00:42:47.987Z,15.37
2022-10-31T00:45:14.593Z,15.36
2022-10-31T00:47:41.051Z,15.29
2022-10-31T00:50:08.502Z,15.23
2022-10-31T00:52:35.332Z,15.21
2022-10-31T00:55:01.809Z,15.21
2022-10-31T00:57:28.250Z,15.23
2022-10-31T00:59:55.154Z,15.18
2022-10-31T01:02:22.407Z,15.12
2022-10-31T01:04:49.454Z,15.12
2022-10-31T01:07:15.965Z,15.15
2022-10-31T01:09:42.442Z,15.18
2022-10-31T01:12:09.610Z,15.08
2022-10-31T01:14:36.115Z,15.07
2022-10-31T01:17:02.624Z,14.96
2022-10-31T01:19:29.196Z,14.91
2022-10-31T01:21:56.419Z,14.96
2022-10-31T01:24:23.137Z,14.98
2022-10-31T01:26:49.642Z,14.97
2022-10-31T01:29:16.148Z,14.97
2022-10-31T01:31:42.640Z,14.97
2022-10-31T01:34:17.730Z,14.97
2022-10-31T01:36:46.119Z,14.91
2022-10-31T01:39:15.019Z,14.88
2022-10-31T01:41:47.465Z,14.86
2022-10-31T01:44:16.833Z,14.83
2022-10-31T01:46:45.926Z,14.77
2022-10-31T01:49:25.109Z,14.67
2022-10-31T01:51:57.540Z,14.65
2022-10-31T01:54:28.001Z,14.61
2022-10-31T01:56:57.444Z,14.48
2022-10-31T01:59:27.998Z,14.42
2022-10-31T02:01:55.088Z,14.37
2022-10-31T02:04:24.802Z,14.34
2022-10-31T02:07:06.528Z,14.27
2022-10-31T02:09:35.235Z,14.22
2022-10-31T02:12:01.987Z,14.25
2022-10-31T02:14:31.528Z,14.30
2022-10-31T02:16:58.757Z,14.39
2022-10-31T02:19:35.666Z,14.32
2022-10-31T02:22:15.862Z,14.29
2022-10-31T02:25:04.452Z,14.22
2022-10-31T02:27:55.734Z,14.17
2022-10-31T02:30:26.909Z,14.19
2022-10-31T02:33:24.460Z,14.15
2022-10-31T02:36:07.161Z,14.15
2022-10-31T02:38:43.185Z,14.18
2022-10-31T02:41:38.682Z,14.20
2022-10-31T02:44:31.071Z,14.23
2022-10-31T02:47:06.427Z,14.19
2022-10-31T02:49:45.097Z,14.04
2022-10-31T02:52:21.109Z,14.01
2022-10-31T02:54:49.442Z,14.01
2022-10-31T02:57:18.814Z,14.04
2022-10-31T02:59:52.410Z,14.05
2022-10-31T03:02:51.956Z,14.07
2022-10-31T03:05:40.276Z,14.10
2022-10-31T03:08:41.981Z,14.12
2022-10-31T03:11:10.922Z,14.14
2022-10-31T03:13:55.595Z,14.11
2022-10-31T03:16:29.967Z,14.14
2022-10-31T03:19:07.646Z,14.11
2022-10-31T03:21:49.428Z,14.08
2022-10-31T03:24:16.557Z,14.01
2022-10-31T03:26:51.217Z,14.00
2022-10-31T03:29:24.031Z,13.93
2022-10-31T03:32:04.251Z,13.86
2022-10-31T03:34:33.035Z,13.80
2022-10-31T03:37:04.443Z,13.79
2022-10-31T03:39:32.717Z,13.80
2022-10-31T03:42:16.033Z,13.82
2022-10-31T03:44:48.315Z,13.70
2022-10-31T03:47:15.209Z,13.60
2022-10-31T03:49:42.200Z,13.55
2022-10-31T03:52:15.059Z,13.58
2022-10-31T03:54:55.746Z,13.59
2022-10-31T03:57:46.117Z,13.49
2022-10-31T04:00:15.757Z,13.47
2022-10-31T04:03:01.874Z,13.49
2022-10-31T04:05:30.732Z,13.37
2022-10-31T04:07:59.814Z,13.39
2022-10-31T04:10:31.997Z,13.45
2022-10-31T04:13:05.959Z,13.51
2022-10-31T04:15:33.339Z,13.56
2022-10-31T04:18:01.605Z,13.60
2022-10-31T04:20:37.251Z,13.48
2022-10-31T04:23:05.049Z,13.41
2022-10-31T04:25:31.542Z,13.44
2022-10-31T04:27:58.459Z,13.48
2022-10-31T04:30:25.239Z,13.57
2022-10-31T04:32:51.781Z,13.65
2022-10-31T04:35:18.341Z,13.63
2022-10-31T04:37:44.813Z,13.56
2022-10-31T04:40:11.814Z,13.56
2022-10-31T04:42:38.374Z,13.65
2022-10-31T04:45:05.420Z,13.57
2022-10-31T04:47:34.086Z,13.52
2022-10-31T04:50:00.887Z,13.53
2022-10-31T04:52:27.820Z,13.60
2022-10-31T04:54:54.271Z,13.65
2022-10-31T04:57:20.767Z,13.69
2022-10-31T04:59:47.240Z,13.72
2022-10-31T05:02:13.866Z,13.74
2022-10-31T05:04:40.556Z,13.63
2022-10-31T05:07:07.069Z,13.54
2022-10-31T05:09:33.651Z,13.48
2022-10-31T05:12:00.263Z,13.35
2022-10-31T05:14:26.719Z,13.32
2022-10-31T05:16:53.169Z,13.23
2022-10-31T05:19:19.812Z,13.16
2022-10-31T05:21:46.271Z,13.16
2022-10-31T05:24:12.753Z,13.16
2022-10-31T05:26:39.536Z,13.15
2022-10-31T05:29:05.995Z,13.09
2022-10-31T05:31:32.432Z,13.11
2022-10-31T05:33:59.038Z,13.17
2022-10-31T05:36:25.534Z,13.24
2022-10-31T05:38:51.998Z,13.28
2022-10-31T05:41:18.778Z,13.30
2022-10-31T05:43:46.313Z,13.34
2022-10-31T05:46:12.741Z,13.35
2022-10-31T05:48:39.492Z,13.39
2022-10-31T05:51:06.134Z,13.35
2022-10-31T05:53:32.614Z,13.37
2022-10-31T05:55:59.094Z,13.37
2022-10-31T05:58:25.578Z,13.39
2022-10-31T06:00:52.061Z,13.40
2022-10-31T06:03:18.802Z,13.30
2022-10-31T06:05:49.236Z,13.19
2022-10-31T06:08:18.958Z,13.09
2022-10-31T06:10:45.582Z,13.11
2022-10-31T06:13:12.068Z,13.14
2022-10-31T06:15:38.561Z,13.20
2022-10-31T06:18:06.704Z,13.18
2022-10-31T06:20:34.576Z,13.08
2022-10-31T06:23:02.264Z,13.06
2022-10-31T06:25:29.393Z,13.10
2022-10-31T06:27:56.956Z,13.14
2022-10-31T06:30:23.717Z,13.05
2022-10-31T06:32:50.906Z,12.99
2022-10-31T06:35:17.892Z,12.98
2022-10-31T06:37:51.501Z,13.04
2022-10-31T06:40:18.216Z,13.10
2022-10-31T06:42:44.949Z,13.12
2022-10-31T06:45:11.436Z,13.18
2022-10-31T06:47:50.753Z,13.22
2022-10-31T06:50:24.507Z,13.17
2022-10-31T06:52:52.782Z,13.12
2022-10-31T06:55:21.622Z,13.05
2022-10-31T06:57:57.684Z,13.01
2022-10-31T07:00:30.242Z,13.06
2022-10-31T07:03:05.949Z,13.13
2022-10-31T07:05:32.598Z,13.18
2022-10-31T07:08:01.974Z,13.24
2022-10-31T07:10:32.158Z,13.23
2022-10-31T07:13:03.609Z,13.19
2022-10-31T07:15:33.573Z,13.14
2022-10-31T07:18:02.349Z,13.15
2022-10-31T07:20:29.945Z,13.14
2022-10-31T07:22:56.605Z,13.11
2022-10-31T07:25:23.442Z,13.07
2022-10-31T07:27:50.047Z,13.12
2022-10-31T07:30:19.818Z,13.15
2022-10-31T07:32:50.947Z,13.20
2022-10-31T07:35:22.981Z,13.25
2022-10-31T07:44:15.275Z,13.26
2022-10-31T07:46:42.885Z,13.28
2022-10-31T07:49:09.319Z,13.34
2022-10-31T07:51:35.761Z,13.44
2022-10-31T07:54:02.285Z,13.55
2022-10-31T07:56:28.809Z,13.60
2022-10-31T07:58:55.320Z,13.64
2022-10-31T08:01:21.839Z,13.65
2022-10-31T08:03:48.359Z,13.64
2022-10-31T08:06:14.829Z,13.66
2022-10-31T08:08:43.908Z,13.70
2022-10-31T08:11:10.471Z,13.70
2022-10-31T08:13:37.015Z,13.68
2022-10-31T08:16:05.405Z,13.67
2022-10-31T08:18:32.050Z,13.73
2022-10-31T08:20:58.562Z,13.78
2022-10-31T08:23:25.141Z,13.85
2022-10-31T08:25:51.710Z,13.92
2022-10-31T08:28:18.196Z,13.97
2022-10-31T08:30:44.706Z,14.04
2022-10-31T08:33:19.040Z,14.13
2022-10-31T08:35:46.142Z,14.19
2022-10-31T08:38:13.679Z,14.27
2022-10-31T08:40:40.512Z,14.32
2022-10-31T08:43:12.263Z,14.34
2022-10-31T08:45:38.787Z,14.37
2022-10-31T08:48:07.555Z,14.43
2022-10-31T08:50:35.736Z,14.46
2022-10-31T08:53:05.987Z,14.50
2022-10-31T08:55:37.021Z,14.51
2022-10-31T08:58:05.629Z,14.57
2022-10-31T09:00:33.207Z,14.61
2022-10-31T09:03:01.910Z,14.61
2022-10-31T09:05:29.068Z,14.64
2022-10-31T09:08:00.703Z,14.70
2022-10-31T09:10:29.072Z,14.79
2022-10-31T09:13:00.447Z,14.83
2022-10-31T09:15:28.535Z,14.86
2022-10-31T09:17:55.394Z,14.89
2022-10-31T09:20:21.945Z,14.92
2022-10-31T09:22:48.526Z,14.93
2022-10-31T09:25:15.236Z,14.97
2022-10-31T09:27:41.733Z,14.98
2022-10-31T09:30:08.766Z,15.01
2022-10-31T09:32:35.261Z,15.08
2022-10-31T09:35:01.923Z,15.15
2022-10-31T09:37:28.889Z,15.22
2022-10-31T09:39:55.455Z,15.34
2022-10-31T09:43:03.375Z,15.40
2022-10-31T09:45:50.698Z,15.46
2022-10-31T09:48:29.097Z,15.51
2022-10-31T09:51:09.886Z,15.60
2022-10-31T09:53:55.116Z,15.69
2022-10-31T09:56:24.389Z,15.78
2022-10-31T09:59:02.619Z,15.92
2022-10-31T10:01:29.232Z,16.09
2022-10-31T10:04:01.900Z,16.15
2022-10-31T10:06:36.674Z,16.22
2022-10-31T10:09:03.304Z,16.34
2022-10-31T10:11:51.684Z,16.48
2022-10-31T10:14:39.692Z,16.61
2022-10-31T10:17:27.595Z,16.80
2022-10-31T10:19:59.789Z,16.81
2022-10-31T10:22:39.183Z,16.78
2022-10-31T10:25:22.537Z,16.66
2022-10-31T10:28:21.016Z,16.66
2022-10-31T10:30:49.821Z,16.75
2022-10-31T10:33:24.150Z,16.81
2022-10-31T10:35:56.416Z,16.82
2022-10-31T10:38:44.287Z,16.94
2022-10-31T10:41:18.485Z,16.99
2022-10-31T10:47:11.065Z,17.09
2022-10-31T10:49:38.174Z,17.12
2022-10-31T10:52:35.322Z,17.20
2022-10-31T10:55:21.270Z,17.27
2022-10-31T10:57:57.194Z,17.41
2022-10-31T11:00:25.411Z,17.53
2022-10-31T11:02:52.810Z,17.63
2022-10-31T11:05:46.006Z,17.72
2022-10-31T11:08:27.744Z,17.79
2022-10-31T11:11:05.113Z,17.82
2022-10-31T11:13:33.653Z,17.84
2022-10-31T11:16:12.839Z,17.85
2022-10-31T11:18:43.939Z,17.84
2022-10-31T11:21:21.959Z,17.89
2022-10-31T11:23:48.463Z,17.95
2022-10-31T11:26:21.875Z,17.98
2022-10-31T11:29:26.639Z,17.98
2022-10-31T11:31:56.288Z,18.05
2022-10-31T11:34:30.971Z,18.10
2022-10-31T11:37:04.250Z,18.19
2022-10-31T11:39:31.168Z,18.23
2022-10-31T11:42:06.333Z,18.24
2022-10-31T11:44:35.604Z,18.25
2022-10-31T11:47:05.706Z,18.31
2022-10-31T11:49:37.459Z,18.34
2022-10-31T11:52:43.138Z,18.42
2022-10-31T11:55:12.485Z,18.40
2022-10-31T11:57:53.284Z,18.43
2022-10-31T12:00:38.673Z,18.44
2022-10-31T12:03:27.875Z,18.52
2022-10-31T12:06:06.230Z,18.56
2022-10-31T12:08:35.958Z,18.61
2022-10-31T12:11:08.624Z,18.63
2022-10-31T12:13:40.571Z,18.67
2022-10-31T12:16:30.706Z,18.75
2022-10-31T12:19:17.281Z,18.73
2022-10-31T12:22:05.432Z,18.77
2022-10-31T12:24:50.149Z,18.69
2022-10-31T12:27:39.045Z,18.76
2022-10-31T12:30:21.435Z,18.84
2022-10-31T12:33:22.899Z,18.90
2022-10-31T12:36:17.216Z,18.95
2022-10-31T12:39:02.133Z,19.08
2022-10-31T12:41:59.246Z,19.14
2022-10-31T12:44:41.312Z,19.28
2022-10-31T12:47:26.201Z,19.34
2022-10-31T12:50:03.158Z,19.35
2022-10-31T12:52:51.368Z,19.47
2022-10-31T12:55:48.354Z,19.62
2022-10-31T12:58:48.398Z,19.83
2022-10-31T13:01:38.258Z,19.90
2022-10-31T13:04:24.989Z,20.04
2022-10-31T13:06:59.293Z,20.10
2022-10-31T13:09:35.005Z,20.09
2022-10-31T13:12:16.341Z,20.06
2022-10-31T13:14:48.575Z,19.98
2022-10-31T13:17:31.303Z,20.04
2022-10-31T13:20:14.554Z,20.10
2022-10-31T13:22:45.057Z,20.05
2022-10-31T13:25:27.417Z,20.04
2022-10-31T13:28:04.373Z,19.97
2022-10-31T13:30:35.642Z,19.88
2022-10-31T13:33:38.802Z,19.82
2022-10-31T13:36:25.477Z,19.71
2022-10-31T13:39:04.138Z,19.62
2022-10-31T13:41:49.341Z,19.56
2022-10-31T13:44:28.683Z,19.51
2022-10-31T13:46:57.689Z,19.51
2022-10-31T13:49:39.460Z,19.48
2022-10-31T13:52:27.144Z,19.49
2022-10-31T13:54:57.904Z,19.43
2022-10-31T13:57:43.359Z,19.41
2022-10-31T14:00:21.798Z,19.48
2022-10-31T14:02:52.882Z,19.48
2022-10-31T14:05:25.361Z,19.51
2022-10-31T14:07:54.018Z,19.55
2022-10-31T14:10:29.900Z,19.60
2022-10-31T14:13:09.514Z,19.65
2022-10-31T14:15:39.243Z,19.65
2022-10-31T14:18:27.040Z,19.63
2022-10-31T14:20:53.943Z,19.63
2022-10-31T14:23:36.123Z,19.59
2022-10-31T14:26:28.153Z,19.60
2022-10-31T14:29:00.620Z,19.60
2022-10-31T14:31:40.855Z,19.66
2022-10-31T14:34:10.064Z,19.66
2022-10-31T14:36:52.081Z,19.68
2022-10-31T14:39:32.780Z,19.69
2022-10-31T14:42:14.969Z,19.65
2022-10-31T14:45:08.057Z,19.66
2022-10-31T14:47:46.626Z,19.65
2022-10-31T14:50:41.917Z,19.49
2022-10-31T14:53:16.594Z,19.45
2022-10-31T14:55:48.357Z,19.35
2022-10-31T14:58:23.204Z,19.25
2022-10-31T15:00:55.144Z,19.20
2022-10-31T15:03:57.444Z,19.16
2022-10-31T15:06:45.898Z,19.17
2022-10-31T15:09:27.462Z,19.14
2022-10-31T15:11:54.202Z,19.21
2022-10-31T15:14:27.115Z,19.20
2022-10-31T15:16:53.787Z,19.12
2022-10-31T15:19:28.279Z,19.02
2022-10-31T15:21:57.150Z,18.97
2022-10-31T15:24:31.011Z,18.89
2022-10-31T15:27:03.805Z,18.83
2022-10-31T15:29:31.916Z,18.79
2022-10-31T15:32:18.856Z,18.75
2022-10-31T15:34:46.753Z,18.68
2022-10-31T15:37:15.949Z,18.62
2022-10-31T15:39:43.849Z,18.58
2022-10-31T15:42:19.938Z,18.51
2022-10-31T15:44:56.386Z,18.51
2022-10-31T15:47:25.454Z,18.42
2022-10-31T15:49:56.842Z,18.38
2022-10-31T15:52:41.181Z,18.30
2022-10-31T15:55:11.518Z,18.23
2022-10-31T15:57:44.844Z,18.17
2022-10-31T16:00:31.549Z,18.15
2022-10-31T16:03:05.354Z,18.08
2022-10-31T16:05:44.437Z,18.05
2022-10-31T16:08:29.429Z,17.96
2022-10-31T16:10:57.865Z,17.92
2022-10-31T16:13:31.874Z,17.88
2022-10-31T16:16:33.613Z,17.83
2022-10-31T16:18:51.827Z,17.80
2022-10-31T16:21:26.458Z,17.78
2022-10-31T16:23:58.403Z,17.76
2022-10-31T16:26:25.767Z,17.73
2022-10-31T16:29:04.763Z,17.73
2022-10-31T16:31:39.142Z,17.71
2022-10-31T16:34:14.564Z,17.71
2022-10-31T16:36:41.283Z,17.71
2022-10-31T16:39:08.589Z,17.68
2022-10-31T16:41:43.125Z,17.65
2022-10-31T16:44:23.315Z,17.66
2022-10-31T16:47:09.276Z,17.60
2022-10-31T16:49:35.808Z,17.60
2022-10-31T16:52:02.478Z,17.53
2022-10-31T16:54:30.236Z,17.58
2022-10-31T16:56:58.418Z,17.49
2022-10-31T16:59:25.068Z,17.40
2022-10-31T17:01:51.691Z,17.32
2022-10-31T17:04:18.713Z,17.23
2022-10-31T17:06:45.218Z,17.16
2022-10-31T17:09:11.949Z,17.13
2022-10-31T17:11:49.196Z,17.15
2022-10-31T17:14:17.402Z,17.10
2022-10-31T17:16:44.331Z,17.05
2022-10-31T17:19:11.920Z,17.02
2022-10-31T17:21:38.788Z,16.98
2022-10-31T17:24:13.680Z,16.95
2022-10-31T17:26:40.741Z,16.94
2022-10-31T17:29:07.561Z,16.91
2022-10-31T17:31:37.229Z,16.89
2022-10-31T17:34:05.359Z,16.90
2022-10-31T17:36:33.518Z,16.87
2022-10-31T17:39:05.565Z,16.84
2022-10-31T17:41:32.141Z,16.85
2022-10-31T17:43:59.631Z,16.86
2022-10-31T17:46:26.526Z,16.87
2022-10-31T17:48:53.182Z,16.87
2022-10-31T17:51:19.796Z,16.90
2022-10-31T17:53:46.295Z,16.91
2022-10-31T17:56:12.868Z,16.94
2022-10-31T17:58:39.459Z,16.99
2022-10-31T18:01:11.767Z,17.01
2022-10-31T18:03:39.338Z,17.03
2022-10-31T18:06:06.122Z,17.09
2022-10-31T18:08:35.107Z,17.11
2022-10-31T18:11:12.979Z,17.13
2022-10-31T18:13:39.643Z,17.13
2022-10-31T18:16:14.912Z,17.16
2022-10-31T18:18:41.479Z,17.20
2022-10-31T18:21:08.045Z,17.21
2022-10-31T18:23:34.815Z,17.22
2022-10-31T18:26:01.553Z,17.25
2022-10-31T18:28:28.032Z,17.28
2022-10-31T18:30:54.521Z,17.31
2022-10-31T18:33:21.236Z,17.33
2022-10-31T18:35:47.820Z,17.31
2022-10-31T18:38:14.299Z,17.31
2022-10-31T18:40:41.569Z,17.33
2022-10-31T18:43:08.179Z,17.34
2022-10-31T18:45:46.599Z,17.38
2022-10-31T18:48:16.268Z,17.35
2022-10-31T18:50:43.643Z,17.37
2022-10-31T18:53:10.258Z,17.39
2022-10-31T18:55:44.061Z,17.40
2022-10-31T18:58:14.043Z,17.39
2022-10-31T19:00:40.630Z,17.37
2022-10-31T19:03:07.185Z,17.37
2022-10-31T19:05:33.812Z,17.37
2022-10-31T19:08:00.293Z,17.38
2022-10-31T19:10:26.878Z,17.34
2022-10-31T19:12:53.948Z,17.36
2022-10-31T19:15:20.601Z,17.36
2022-10-31T19:17:47.275Z,17.33
2022-10-31T19:20:14.236Z,17.28
2022-10-31T19:22:40.773Z,17.24
2022-10-31T19:25:10.340Z,17.22
2022-10-31T19:27:38.153Z,17.26
2022-10-31T19:30:05.710Z,17.23
2022-10-31T19:32:32.209Z,17.22
2022-10-31T19:34:58.936Z,17.16
2022-10-31T19:37:25.580Z,17.16
2022-10-31T19:39:52.680Z,17.12
2022-10-31T19:42:19.259Z,17.07
2022-10-31T19:44:45.855Z,17.08
2022-10-31T19:47:12.468Z,17.05
2022-10-31T19:49:38.942Z,17.04
2022-10-31T19:52:05.465Z,17.02
2022-10-31T19:54:32.199Z,17.01
2022-10-31T19:56:58.703Z,16.98
2022-10-31T19:59:26.336Z,16.96
2022-10-31T20:01:53.029Z,16.93
2022-10-31T20:04:19.637Z,16.91
2022-10-31T20:06:46.801Z,16.91
2022-10-31T20:09:14.825Z,16.88
2022-10-31T20:11:43.227Z,16.84
2022-10-31T20:14:12.759Z,16.82
2022-10-31T20:16:39.856Z,16.78
2022-10-31T20:19:06.663Z,16.77
2022-10-31T20:21:38.398Z,16.76
2022-10-31T20:24:08.416Z,16.77
2022-10-31T20:26:35.531Z,16.75
2022-10-31T20:29:03.317Z,16.77
2022-10-31T20:31:33.856Z,16.77
2022-10-31T20:34:00.692Z,16.75
2022-10-31T20:36:29.543Z,16.78
2022-10-31T20:38:56.122Z,16.77
2022-10-31T20:41:22.695Z,16.81
2022-10-31T20:43:49.370Z,16.85
2022-10-31T20:46:18.819Z,16.85
2022-10-31T20:48:46.106Z,16.86
2022-10-31T20:53:42.715Z,16.88
2022-10-31T20:56:13.870Z,16.91
2022-10-31T20:58:41.657Z,16.95
2022-10-31T21:01:12.198Z,16.94
2022-10-31T21:03:38.864Z,16.93
2022-10-31T21:06:05.711Z,16.97
2022-10-31T21:08:33.188Z,17.00
2022-10-31T21:11:01.057Z,17.01
2022-10-31T21:13:28.553Z,17.02
2022-10-31T21:16:02.466Z,17.03
2022-10-31T21:18:29.773Z,17.03
2022-10-31T21:20:56.568Z,17.01
2022-10-31T21:23:23.892Z,17.04
2022-10-31T21:25:50.518Z,17.09
2022-10-31T21:28:17.525Z,17.11
2022-10-31T21:30:46.455Z,17.12
2022-10-31T21:33:13.713Z,17.13
2022-10-31T21:35:40.307Z,17.12
2022-10-31T21:38:06.919Z,17.13
2022-10-31T21:40:33.547Z,17.14
2022-10-31T21:43:00.456Z,17.20
2022-10-31T21:45:27.155Z,17.20
2022-10-31T21:47:53.620Z,17.19
2022-10-31T21:50:20.362Z,17.21
2022-10-31T21:52:46.866Z,17.17
2022-10-31T21:55:13.415Z,17.17
2022-10-31T21:57:39.952Z,17.18
2022-10-31T22:00:09.017Z,17.19
2022-10-31T22:02:36.368Z,17.17
2022-10-31T22:05:03.393Z,17.15
2022-10-31T22:07:32.160Z,17.10
2022-10-31T22:09:58.667Z,17.11
2022-10-31T22:12:25.200Z,17.09
2022-10-31T22:14:51.738Z,17.10
2022-10-31T22:17:18.392Z,17.05
2022-10-31T22:19:44.906Z,17.06
2022-10-31T22:22:13.164Z,17.11
2022-10-31T22:24:39.658Z,17.08
2022-10-31T22:27:06.205Z,17.04
2022-10-31T22:29:32.774Z,17.02
2022-10-31T22:32:00.662Z,17.01
2022-10-31T22:34:28.411Z,17.03
2022-10-31T22:36:56.202Z,17.02
2022-10-31T22:39:22.768Z,17.00
2022-10-31T22:41:49.245Z,17.03
2022-10-31T22:44:15.742Z,17.08
2022-10-31T22:46:42.263Z,17.06
2022-10-31T22:49:14.738Z,17.07
2022-10-31T22:51:42.316Z,17.09
2022-10-31T22:54:12.738Z,17.09
2022-10-31T22:56:39.295Z,17.04
2022-10-31T22:59:06.344Z,17.02
2022-10-31T23:01:34.237Z,17.01
2022-10-31T23:04:01.210Z,17.02
2022-10-31T23:06:32.518Z,17.04
2022-10-31T23:09:01.105Z,17.06
2022-10-31T23:11:37.688Z,17.10
2022-10-31T23:14:15.936Z,17.14
2022-10-31T23:16:49.765Z,17.14
2022-10-31T23:19:25.043Z,17.16
2022-10-31T23:22:03.075Z,17.21
2022-10-31T23:24:37.693Z,17.18
2022-10-31T23:27:10.618Z,17.21
2022-10-31T23:29:49.192Z,17.24
2022-10-31T23:32:27.663Z,17.22
2022-10-31T23:34:59.065Z,17.25
2022-10-31T23:37:28.654Z,17.24
2022-10-31T23:39:55.420Z,17.22
2022-10-31T23:42:22.926Z,17.24
2022-10-31T23:44:49.838Z,17.24
2022-10-31T23:47:19.019Z,17.26
2022-10-31T23:49:45.695Z,17.25
2022-10-31T23:52:13.375Z,17.26
2022-10-31T23:54:40.369Z,17.22
2022-10-31T23:57:07.060Z,17.21
2022-10-31T23:59:33.911Z,17.21
